Latest Weather Observations for Essendon Airport

IDV60801

Issued at 6:32 am EDT Saturday 19 October 2019 (issued every 10 minutes, with the page automatically refreshed every 10 minutes)

About weather observations | Map of weather stations | Latest weather observations for VIC | Other Formats
Station Details ID: 086038 Name: ESSENDON AIRPORT Lat: -37.73 Lon: 144.91 Height: 78.4 m
Data from the previous 72 hours. | See also: Recent months at Essendon Airport
Date/Time
EDT
Temp
°C
App
Temp
°C
Dew
Point
°C
Rel
Hum
%
Delta-T
°C
Wind Press
QNH
hPa
Press
MSL
hPa
Rain since
9am
mm
Dir  Spd
km/h
Gust
km/h
Spd
kts
Gust
kts
19/06:30am 7.8 4.3 5.6 86 1.0 WNW 13 17 7 9 1013.9 1013.9 1.2
19/06:00am 7.1 1.9 5.4 89 0.8 WSW 22 32 12 17 1013.6 1013.6 1.2
19/05:44am 8.5 3.6 3.9 73 2.0 W 19 50 10 27 1013.7 1013.7 0.4
19/05:30am 9.3 4.4 4.9 74 2.0 W 20 26 11 14 1013.1 1013.1 0.4
19/05:00am 9.1 6.3 5.3 77 1.7 NW 9 13 5 7 1012.9 1012.9 0.4
19/04:30am 9.8 6.8 5.8 76 1.8 NW 11 15 6 8 1012.9 1012.9 0.4
19/04:00am 9.7 6.3 5.7 76 1.8 WNW 13 19 7 10 1012.9 1012.9 0.4
19/03:30am 9.7 5.5 5.9 77 1.8 W 17 22 9 12 1013.0 1013.0 0.4
19/03:00am 9.9 7.3 6.1 77 1.8 WNW 9 13 5 7 1013.1 1013.1 0.4
19/02:30am 10.0 5.9 6.0 76 1.9 WSW 17 20 9 11 1013.2 1013.2 0.4
19/02:00am 10.4 4.9 5.8 73 2.1 W 24 30 13 16 1013.2 1013.2 0.4
19/01:30am 11.0 6.6 6.4 73 2.2 W 19 26 10 14 1013.3 1013.3 0.4
19/01:00am 11.4 7.1 6.9 74 2.2 WSW 19 26 10 14 1013.4 1013.4 0.4
19/12:30am 11.6 7.3 7.1 74 2.2 W 19 26 10 14 1013.7 1013.7 0.4
19/12:00am 11.6 8.3 7.9 78 1.8 W 15 20 8 11 1013.7 1013.7 0.4
 
Date/Time
EDT
Temp
°C
App
Temp
°C
Dew
Point
°C
Rel
Hum
%
Delta-T
°C
Wind Press
QNH
hPa
Press
MSL
hPa
Rain since
9am
mm
Dir  Spd
km/h
Gust
km/h
Spd
kts
Gust
kts
18/11:30pm 11.1 8.7 8.5 84 1.3 WSW 11 13 6 7 1013.6 1013.6 0.4
18/11:00pm 11.5 8.7 8.4 81 1.5 W 13 17 7 9 1013.7 1013.7 0.4
18/10:30pm 11.8 7.4 8.8 82 1.5 W 22 35 12 19 1013.5 1013.5 0.4
18/10:00pm 11.1 7.4 10.0 93 0.6 WSW 20 28 11 15 1013.7 1013.7 0.4
18/09:43pm 10.8 5.8 9.7 93 0.6 WSW 26 33 14 18 1013.7 1013.7 0.4
18/09:30pm 11.0 4.9 9.9 93 0.6 WSW 32 43 17 23 1013.6 1013.6 0.4
18/09:17pm 11.9 4.9 9.8 87 1.1 SW 37 52 20 28 1013.4 1013.4 0.2
18/09:01pm 13.8 7.5 9.6 76 2.2 WSW 33 52 18 28 1013.0 1013.0 0.2
18/09:00pm 13.8 7.1 9.6 76 2.2 WSW 35 52 19 28 1012.9 1012.9 0.2
18/08:36pm 13.5 6.9 9.9 79 1.9 SW 35 54 19 29 1011.9 1011.9 0.2
18/08:30pm 13.6 6.6 10.0 79 1.9 SW 37 54 20 29 1011.9 1011.9 0.2
18/08:23pm 13.7 7.1 9.9 78 2.0 SW 35 54 19 29 1011.7 1011.7 0.2
18/08:03pm 15.6 10.2 7.9 60 3.9 W 26 54 14 29 1011.0 1011.0 0.2
18/08:00pm 18.8 13.6 3.8 37 7.1 WNW 20 30 11 16 1010.5 1010.5 0.2
18/07:30pm 19.2 13.9 3.0 34 7.6 WNW 20 26 11 14 1009.6 1009.6 0.2
18/07:00pm 19.8 12.9 2.6 32 8.0 WNW 28 39 15 21 1009.2 1009.2 0.2
18/06:30pm 20.7 13.3 2.0 29 8.7 NW 30 41 16 22 1009.2 1009.2 0.2
18/06:00pm 21.1 12.9 2.9 30 8.6 NW 35 56 19 30 1009.3 1009.3 0.2
18/05:35pm 21.0 12.5 3.2 31 8.5 NW 37 56 20 30 1009.4 1009.4 0.2
18/05:30pm 20.8 12.2 2.6 30 8.5 NW 37 52 20 28 1009.5 1009.5 0.2
18/05:00pm 20.7 12.1 2.5 30 8.5 NW 37 56 20 30 1009.6 1009.6 0.2
18/04:59pm 20.5 12.2 1.9 29 8.6 NW 35 56 19 30 1009.7 1009.7 0.2
18/04:30pm 20.3 11.4 3.1 32 8.1 NW 39 54 21 29 1010.1 1010.1 0.2
18/04:00pm 20.7 11.8 3.0 31 8.4 NW 39 59 21 32 1010.3 1010.3 0.2
18/03:48pm 20.1 10.8 2.9 32 8.1 NW 41 61 22 33 1010.3 1010.3 0.2
18/03:30pm 19.9 10.8 4.0 35 7.6 NW 41 54 22 29 1010.4 1010.4 0.2
18/03:08pm 19.8 10.7 3.9 35 7.6 NW 41 59 22 32 1010.7 1010.7 0.2
18/03:00pm 19.8 10.4 4.3 36 7.5 NW 43 59 23 32 1010.8 1010.8 0.2
18/02:30pm 19.6 11.0 4.5 37 7.3 NW 39 57 21 31 1011.6 1011.6 0.2
18/02:00pm 19.7 10.5 5.4 39 7.0 NW 43 61 23 33 1012.0 1012.0 0.2
18/01:30pm 17.7 9.9 5.0 43 6.1 NW 35 54 19 29 1012.5 1012.5 0.2
18/01:03pm 18.0 11.7 5.9 45 5.9 NNW 28 46 15 25 1012.9 1012.9 0.2
18/01:00pm 17.5 10.6 6.4 48 5.5 NW 32 46 17 25 1013.0 1013.0 0.2
18/12:31pm 17.4 10.5 6.6 49 5.4 NW 32 50 17 27 1013.2 1013.2 0.2
18/12:30pm 17.4 10.2 6.0 47 5.6 NW 33 50 18 27 1013.2 1013.2 0.2
18/12:00pm 17.1 9.0 5.4 46 5.7 NW 37 50 20 27 1013.8 1013.8 0.2
18/11:37am 16.3 8.6 5.3 48 5.3 NW 35 57 19 31 1014.2 1014.2 0.2
18/11:30am 15.6 7.4 4.6 48 5.2 NW 37 50 20 27 1014.3 1014.3 0.2
18/11:00am 15.4 10.0 6.2 54 4.5 NNW 24 43 13 23 1014.8 1014.8 0.2
18/10:30am 14.6 8.1 4.9 52 4.6 NNW 28 41 15 22 1015.0 1015.0 0.2
18/10:00am 13.0 7.8 5.4 60 3.6 N 22 32 12 17 1015.4 1015.3 0.0
18/09:30am 12.1 6.6 5.7 65 3.0 N 24 33 13 18 1015.6 1015.5 0.0
18/09:00am 11.4 6.6 4.8 64 3.0 NNW 19 26 10 14 1015.8 1015.7 0.4
18/08:30am 10.4 6.5 5.4 71 2.3 N 15 22 8 12 1016.1 1016.0 0.4
18/08:00am 8.2 4.8 4.2 76 1.7 NNW 11 13 6 7 1016.0 1015.9 0.4
18/07:30am 6.7 3.2 3.5 80 1.4 NNW 11 15 6 8 1015.9 1015.8 0.4
18/07:00am 5.9 2.4 3.4 84 1.0 N 11 15 6 8 1015.8 1015.7 0.4
18/06:30am 5.1 1.1 3.1 87 0.8 N 13 15 7 8 1015.5 1015.4 0.4
18/06:00am 5.7 1.4 3.5 86 0.9 N 15 17 8 9 1015.5 1015.4 0.4
18/05:30am 5.8 1.9 3.3 84 1.0 N 13 15 7 8 1015.7 1015.6 0.4
18/05:00am 6.4 2.6 3.7 83 1.1 N 13 15 7 8 1015.7 1015.6 0.4
18/04:30am 6.5 3.1 4.0 84 1.1 NNW 11 13 6 7 1015.8 1015.7 0.4
18/04:00am 6.7 3.0 4.5 86 1.0 N 13 15 7 8 1016.1 1016.0 0.4
18/03:30am 7.1 4.2 4.6 84 1.1 NW 9 11 5 6 1016.2 1016.1 0.4
18/03:00am 8.0 4.7 4.8 80 1.4 NW 11 15 6 8 1016.5 1016.4 0.4
18/02:30am 7.9 4.3 5.0 82 1.3 WNW 13 15 7 8 1016.5 1016.4 0.4
18/02:00am 8.1 5.2 4.7 79 1.5 WNW 9 13 5 7 1016.5 1016.4 0.4
18/01:30am 8.8 4.4 5.0 77 1.7 W 17 20 9 11 1016.8 1016.7 0.4
18/01:00am 9.2 6.7 6.6 84 1.2 W 9 11 5 6 1017.0 1016.9 0.4
18/12:30am 9.2 5.9 6.3 82 1.3 W 13 15 7 8 1017.0 1016.9 0.4
18/12:00am 9.7 5.7 6.6 81 1.4 WSW 17 24 9 13 1017.0 1016.9 0.4
 
Date/Time
EDT
Temp
°C
App
Temp
°C
Dew
Point
°C
Rel
Hum
%
Delta-T
°C
Wind Press
QNH
hPa
Press
MSL
hPa
Rain since
9am
mm
Dir  Spd
km/h
Gust
km/h
Spd
kts
Gust
kts
17/11:30pm 10.1 5.8 7.0 81 1.5 WSW 19 26 10 14 1017.2 1017.1 0.4
17/11:00pm 10.5 6.3 7.4 81 1.5 WSW 19 24 10 13 1017.1 1017.0 0.4
17/10:30pm 10.9 6.5 7.4 79 1.7 WSW 20 30 11 16 1017.1 1017.0 0.4
17/10:00pm 11.3 6.6 7.6 78 1.8 WSW 22 30 12 16 1017.1 1017.0 0.4
17/09:30pm 11.5 5.2 7.2 75 2.1 WSW 30 44 16 24 1016.6 1016.5 0.4
17/09:00pm 11.9 5.9 7.0 72 2.4 WSW 28 39 15 21 1015.9 1015.8 0.4
17/08:30pm 11.8 6.1 6.7 71 2.4 WSW 26 33 14 18 1015.3 1015.2 0.4
17/08:00pm 12.2 6.0 6.0 66 2.9 WSW 28 39 15 21 1014.6 1014.6 0.4
17/07:30pm 12.8 5.8 5.9 63 3.3 WSW 32 44 17 24 1014.0 1014.0 0.4
17/07:00pm 13.0 6.6 7.0 67 2.9 WSW 30 44 16 24 1013.4 1013.4 0.4
17/06:30pm 12.9 6.7 7.8 71 2.5 WSW 30 39 16 21 1012.8 1012.8 0.4
17/06:11pm 12.5 4.7 8.2 75 2.1 WSW 39 57 21 31 1012.6 1012.6 0.4
17/06:00pm 12.7 5.1 7.6 71 2.5 WSW 37 54 20 29 1012.4 1012.4 0.4
17/05:36pm 12.5 3.3 8.2 75 2.1 WSW 46 65 25 35 1012.0 1012.0 0.4
17/05:30pm 13.1 3.0 7.5 69 2.7 WSW 50 67 27 36 1011.8 1011.8 0.4
17/05:26pm 13.4 4.3 7.0 65 3.1 WSW 44 67 24 36 1011.6 1011.6 0.4
17/05:21pm 14.3 6.7 5.9 57 4.0 W 35 56 19 30 1011.3 1011.3 0.4
17/05:00pm 14.4 6.1 6.0 57 4.0 W 39 52 21 28 1010.7 1010.7 0.4
17/04:30pm 14.9 7.0 6.0 55 4.3 W 37 54 20 29 1010.4 1010.4 0.4
17/04:00pm 15.5 7.4 6.8 56 4.3 W 39 57 21 31 1010.3 1010.3 0.4
17/03:34pm 14.3 6.0 5.9 57 4.0 W 39 57 21 31 1010.2 1010.2 0.4
17/03:30pm 13.9 5.7 6.5 61 3.6 W 39 56 21 30 1010.2 1010.2 0.4
17/03:00pm 13.9 5.0 5.0 55 4.2 W 41 63 22 34 1010.2 1010.2 0.4
17/02:30pm 13.4 4.4 6.3 62 3.4 W 43 61 23 33 1010.5 1010.5 0.4
17/02:00pm 12.1 4.3 6.6 69 2.6 W 37 56 20 30 1010.6 1010.6 0.4
17/01:53pm 11.6 4.8 6.7 72 2.3 W 32 50 17 27 1010.6 1010.6 0.4
17/01:30pm 10.6 3.9 7.3 80 1.6 W 32 44 17 24 1010.6 1010.6 0.4
17/01:04pm 11.2 4.3 6.5 73 2.2 W 32 50 17 27 1010.3 1010.3 0.4
17/01:02pm 11.0 4.6 7.1 77 1.9 W 30 41 16 22 1010.4 1010.4 0.4
17/01:00pm 10.8 4.3 6.7 76 1.9 W 30 41 16 22 1010.3 1010.3 0.4
17/12:47pm 10.1 0.5 6.3 77 1.8 W 46 67 25 36 1010.2 1010.2 0.4
17/12:36pm 14.1 6.5 2.7 46 5.1 W 32 50 17 27 1009.5 1009.5 0.0
17/12:30pm 15.4 8.8 4.2 47 5.2 W 28 43 15 23 1009.4 1009.4 0.0
17/12:06pm 15.1 8.2 4.5 49 5.0 W 30 50 16 27 1009.6 1009.6 0.0
17/12:00pm 14.6 7.1 4.6 51 4.7 W 33 43 18 23 1009.7 1009.7 0.0
17/11:30am 14.1 7.0 6.5 60 3.7 W 33 52 18 28 1009.7 1009.7 0.0
17/11:25am 12.6 5.1 4.6 58 3.7 W 33 52 18 28 1009.7 1009.7 0.0
17/11:00am 12.2 5.1 5.4 63 3.2 W 32 44 17 24 1009.7 1009.7 0.0
17/10:30am 11.9 4.8 5.3 64 3.1 W 32 46 17 25 1009.8 1009.8 0.0
17/10:00am 11.2 4.9 5.7 69 2.6 W 28 37 15 20 1009.7 1009.7 0.0
17/09:30am 9.8 2.7 5.6 75 1.9 W 32 43 17 23 1009.6 1009.6 0.0
17/09:10am 10.1 3.7 5.1 71 2.3 WNW 28 46 15 25 1009.2 1009.2 0.0
17/09:00am 10.4 4.4 5.4 71 2.3 W 26 37 14 20 1009.2 1009.2 5.8
17/08:30am 10.1 5.2 5.1 71 2.3 WNW 20 30 11 16 1008.8 1008.8 5.8
17/08:00am 9.3 4.0 5.1 75 1.9 WNW 22 32 12 17 1008.9 1008.9 5.8
17/07:30am 8.9 5.7 5.3 78 1.6 NNW 11 20 6 11 1008.1 1008.1 5.8
17/07:00am 8.4 6.1 5.9 84 1.1 WNW 7 11 4 6 1007.5 1007.5 5.8
17/06:30am 8.5 5.5 5.8 83 1.2 WNW 11 15 6 8 1007.2 1007.1 5.8
17/06:00am 9.0 5.3 6.1 82 1.3 W 15 20 8 11 1006.9 1006.8 5.8
17/05:30am 10.1 6.2 7.3 83 1.3 WNW 17 26 9 14 1006.9 1006.8 5.8
17/05:00am 10.4 7.2 6.9 79 1.7 NW 13 24 7 13 1006.6 1006.5 5.8
17/04:30am 10.2 7.1 7.3 82 1.4 NW 13 17 7 9 1006.7 1006.6 5.8
17/04:00am 10.5 6.6 7.2 80 1.6 WNW 17 22 9 12 1006.8 1006.7 5.8
17/03:30am 10.9 6.7 8.1 83 1.4 NNW 20 30 11 16 1006.7 1006.6 5.8
17/03:00am 9.7 6.9 8.6 93 0.5 NW 13 19 7 10 1006.8 1006.7 5.8
17/02:30am 9.7 8.3 9.4 98 0.1 N 7 11 4 6 1006.7 1006.6 5.8
17/02:00am 10.2 9.5 10.1 99 0.1 N 4 7 2 4 1007.1 1007.0 5.8
17/01:30am 10.2 8.5 9.9 98 0.2 N 9 13 5 7 1007.6 1007.6 5.8
17/01:00am 10.5 8.9 10.2 98 0.2 WNW 9 11 5 6 1008.2 1008.2 5.8
17/12:30am 11.2 11.0 10.6 96 0.3 W 2 9 1 5 1008.4 1008.4 5.8
17/12:00am 10.9 9.9 10.3 96 0.3 SSW 6 9 3 5 1008.5 1008.5 5.4
 
Date/Time
EDT
Temp
°C
App
Temp
°C
Dew
Point
°C
Rel
Hum
%
Delta-T
°C
Wind Press
QNH
hPa
Press
MSL
hPa
Rain since
9am
mm
Dir  Spd
km/h
Gust
km/h
Spd
kts
Gust
kts
16/11:37pm 11.6 10.6 11.1 97 0.3 W 7 9 4 5 1008.7 1008.7 5.4
16/11:30pm 11.8 10.5 11.3 97 0.3 W 9 15 5 8 1008.9 1008.9 5.2
16/11:27pm 11.8 10.1 11.3 97 0.3 W 11 15 6 8 1009.0 1009.0 5.2
16/11:00pm 12.2 10.6 11.4 95 0.4 S 11 19 6 10 1009.1 1009.1 1.8
16/10:30pm 11.8 11.3 10.9 94 0.5 SE 4 6 2 3 1009.1 1009.1 1.8
16/10:00pm 11.9 10.9 10.3 90 0.8 SE 6 7 3 4 1009.2 1009.2 1.8
16/09:30pm 12.4 11.4 10.3 87 1.1 SE 6 7 3 4 1009.2 1009.2 1.8
16/09:00pm 13.1 11.3 11.0 87 1.1 SE 11 15 6 8 1009.0 1009.0 1.8
16/08:30pm 13.3 12.5 11.7 90 0.9 SE 7 9 4 5 1009.0 1009.0 1.8
16/08:11pm 13.7 14.1 12.4 92 0.7 SE 2 6 1 3 1009.2 1009.2 1.8
16/08:00pm 13.6 14.3 12.2 91 0.8 CALM 0 0 0 0 1009.0 1009.0 1.8
16/07:51pm 13.6 13.2 12.3 92 0.7 SE 6 9 3 5 1009.1 1009.1 1.8
16/07:30pm 13.6 11.9 12.3 92 0.7 SSE 13 20 7 11 1008.7 1008.7 1.8
16/07:00pm 14.0 11.8 12.2 89 1.0 SSW 15 19 8 10 1008.3 1008.3 1.8
16/06:30pm 14.4 12.4 11.6 83 1.5 SW 13 19 7 10 1008.2 1008.2 1.4
16/06:00pm 15.8 14.6 12.7 82 1.7 SW 11 17 6 9 1007.3 1007.3 1.2
16/05:30pm 15.1 12.5 11.9 81 1.7 WSW 17 20 9 11 1007.4 1007.4 1.0
16/05:00pm 14.1 10.0 11.6 85 1.3 W 24 33 13 18 1007.6 1007.6 0.6
16/04:30pm 15.3 9.9 10.9 75 2.3 SW 30 37 16 20 1007.7 1007.7 0.0
16/04:00pm 16.8 11.5 10.0 64 3.6 WSW 28 50 15 27 1007.5 1007.5 0.0
16/03:55pm 17.5 13.2 9.2 58 4.3 NW 22 50 12 27 1007.5 1007.5 0.0
16/03:30pm 20.3 16.3 9.2 49 5.9 WNW 20 30 11 16 1007.2 1007.1 0.0
16/03:00pm 19.6 16.4 9.8 53 5.3 NW 17 32 9 17 1007.7 1007.7 0.0
16/02:30pm 18.4 15.7 8.9 54 5.0 WNW 13 17 7 9 1008.3 1008.3 0.0
16/02:00pm 18.2 15.6 9.3 56 4.7 NNW 13 19 7 10 1008.7 1008.7 0.0
16/01:30pm 18.4 16.1 11.7 65 3.7 N 15 26 8 14 1009.0 1009.0 0.0
16/01:00pm 17.2 13.8 10.6 65 3.5 N 19 26 10 14 1009.5 1009.5 0.0
16/12:30pm 16.4 13.9 10.9 70 3.0 N 15 20 8 11 1009.7 1009.7 0.0
16/12:00pm 15.7 13.2 10.9 73 2.6 NNW 15 24 8 13 1010.1 1010.1 0.0
16/11:30am 15.0 11.9 10.2 73 2.5 N 17 20 9 11 1010.2 1010.2 0.0
16/11:00am 15.0 13.1 10.6 75 2.3 NNE 11 17 6 9 1009.9 1009.9 0.0
16/10:30am 14.3 12.1 10.9 80 1.8 N 13 19 7 10 1010.8 1010.8 0.0
16/10:00am 13.5 11.7 10.9 84 1.4 NNW 11 15 6 8 1010.7 1010.7 0.0
16/09:30am 13.3 11.9 11.0 86 1.2 NW 9 17 5 9 1011.2 1011.2 0.0
16/09:00am 13.3 12.1 10.3 82 1.6 SSW 7 9 4 5 1011.0 1011.0 0.0
16/08:30am 13.3 12.5 9.7 79 1.9 SSW 4 6 2 3 1011.0 1011.0 0.0
16/08:00am 12.8 11.8 10.3 85 1.3 SSW 6 9 3 5 1010.9 1010.9 0.0
16/07:30am 12.4 11.1 10.1 86 1.2 SSW 7 9 4 5 1011.3 1011.3 0.0
16/07:00am 12.5 11.4 10.0 85 1.3 SSW 6 7 3 4 1011.1 1011.1 0.0

Other formats

Comma delimited format used in spreadsheet applications
http://www.bom.gov.au/fwo/IDV60801/IDV60801.95866.axf

JavaScript Object Notation format (JSON) in row-major order
http://www.bom.gov.au/fwo/IDV60801/IDV60801.95866.json

Data quality

Most of these data are generated automatically and are frequently updated. Quality checks on data are not normally performed. It is possible for incorrect values to appear. Refer to information at About Latest Weather Observations and please check the disclaimer before using these data.